createdAt,value
2023-01-21T00:00:16.184Z,80.50
2023-01-21T00:01:11.628Z,80.43
2023-01-21T00:02:06.761Z,80.49
2023-01-21T00:03:01.865Z,80.64
2023-01-21T00:03:57.042Z,81.04
2023-01-21T00:04:52.273Z,81.46
2023-01-21T00:05:47.479Z,81.90
2023-01-21T00:06:42.731Z,82.37
2023-01-21T00:07:37.801Z,82.86
2023-01-21T00:08:33.008Z,83.24
2023-01-21T00:09:28.536Z,83.57
2023-01-21T00:10:23.497Z,83.48
2023-01-21T00:11:18.822Z,83.37
2023-01-21T00:12:14.045Z,83.22
2023-01-21T00:13:09.123Z,83.04
2023-01-21T00:14:04.345Z,82.94
2023-01-21T00:14:59.633Z,82.73
2023-01-21T00:15:55.038Z,82.50
2023-01-21T00:16:50.257Z,82.45
2023-01-21T00:17:45.501Z,82.62
2023-01-21T00:18:40.686Z,82.92
2023-01-21T00:19:36.049Z,83.19
2023-01-21T00:20:31.277Z,83.21
2023-01-21T00:21:26.528Z,83.17
2023-01-21T00:22:21.853Z,83.25
2023-01-21T00:23:16.975Z,83.36
2023-01-21T00:24:12.165Z,83.48
2023-01-21T00:25:07.447Z,83.33
2023-01-21T00:26:02.708Z,83.14
2023-01-21T00:26:57.895Z,83.14
2023-01-21T00:27:53.177Z,83.00
2023-01-21T00:28:48.135Z,83.12
2023-01-21T00:29:43.219Z,83.11
2023-01-21T00:30:38.330Z,82.76
2023-01-21T00:31:34.603Z,82.57
2023-01-21T00:32:29.581Z,82.34
2023-01-21T00:33:24.694Z,82.16
2023-01-21T00:34:19.931Z,82.10
2023-01-21T00:35:15.055Z,82.23
2023-01-21T00:36:10.220Z,82.44
2023-01-21T00:37:05.327Z,82.64
2023-01-21T00:38:00.137Z,82.61
2023-01-21T00:38:55.240Z,82.63
2023-01-21T00:39:50.282Z,82.76
2023-01-21T00:40:45.388Z,82.75
2023-01-21T00:41:40.627Z,82.61
2023-01-21T00:42:35.716Z,82.39
2023-01-21T00:43:30.631Z,82.21
2023-01-21T00:44:25.924Z,82.01
2023-01-21T00:45:20.747Z,81.65
2023-01-21T00:46:16.041Z,81.42
2023-01-21T00:48:40.398Z,82.24
2023-01-21T00:49:32.782Z,82.00
2023-01-21T00:50:30.790Z,81.72
2023-01-21T00:51:23.444Z,81.46
2023-01-21T00:52:18.628Z,81.42
2023-01-21T00:53:13.878Z,81.47
2023-01-21T00:54:09.086Z,81.39
2023-01-21T00:55:04.448Z,81.29
2023-01-21T00:55:59.726Z,81.17
2023-01-21T00:56:55.098Z,81.15
2023-01-21T00:57:50.373Z,81.43
2023-01-21T00:58:45.620Z,81.52
2023-01-21T00:59:40.902Z,81.40
2023-01-21T01:00:36.138Z,81.22
2023-01-21T01:01:31.542Z,80.95
2023-01-21T01:02:26.604Z,80.93
2023-01-21T01:03:21.811Z,80.75
2023-01-21T01:04:17.034Z,80.75
2023-01-21T01:05:12.361Z,80.91
2023-01-21T01:06:07.548Z,81.23
2023-01-21T01:07:02.920Z,81.57
2023-01-21T01:07:58.125Z,81.77
2023-01-21T01:08:53.346Z,82.03
2023-01-21T01:09:48.569Z,82.22
2023-01-21T01:10:43.642Z,82.44
2023-01-21T01:11:38.900Z,82.66
2023-01-21T01:12:34.129Z,82.96
2023-01-21T01:13:29.330Z,83.18
2023-01-21T01:14:24.563Z,83.43
2023-01-21T01:15:19.755Z,83.47
2023-01-21T01:16:15.040Z,83.22
2023-01-21T01:17:10.188Z,83.10
2023-01-21T01:18:05.416Z,83.15
2023-01-21T01:19:00.751Z,83.04
2023-01-21T01:19:55.994Z,82.95
2023-01-21T01:20:51.169Z,82.84
2023-01-21T01:21:46.411Z,82.61
2023-01-21T01:22:41.616Z,82.56
2023-01-21T01:23:36.827Z,82.53
2023-01-21T01:24:32.071Z,82.61
2023-01-21T01:25:27.276Z,82.72
2023-01-21T01:26:22.423Z,82.83
2023-01-21T01:27:17.673Z,82.95
2023-01-21T01:28:12.973Z,83.02
2023-01-21T01:29:08.323Z,83.14
2023-01-21T01:30:03.389Z,83.26
2023-01-21T01:30:58.963Z,83.40
2023-01-21T01:31:53.970Z,83.47
2023-01-21T01:32:49.333Z,83.46
2023-01-21T01:33:44.572Z,83.43
2023-01-21T01:34:39.959Z,83.44
2023-01-21T01:35:35.024Z,83.54
2023-01-21T01:36:30.237Z,83.62
2023-01-21T01:37:25.597Z,83.67
2023-01-21T01:38:20.713Z,83.86
2023-01-21T01:39:16.149Z,84.12
2023-01-21T01:40:11.120Z,84.36
2023-01-21T01:41:06.314Z,84.57
2023-01-21T01:42:01.549Z,84.74
2023-01-21T01:42:56.729Z,84.89
2023-01-21T01:43:51.935Z,84.99
2023-01-21T01:44:47.175Z,85.05
2023-01-21T01:45:42.380Z,85.11
2023-01-21T01:46:37.690Z,85.19
2023-01-21T01:47:32.910Z,85.19
2023-01-21T01:48:28.088Z,85.24
2023-01-21T01:49:23.466Z,85.13
2023-01-21T01:50:18.870Z,85.03
2023-01-21T01:51:13.878Z,84.82
2023-01-21T01:52:09.080Z,84.58
2023-01-21T01:53:04.199Z,84.37
2023-01-21T01:53:59.409Z,84.12
2023-01-21T01:54:54.624Z,83.97
2023-01-21T01:55:49.865Z,83.83
2023-01-21T01:56:45.079Z,83.71
2023-01-21T01:57:40.295Z,83.62
2023-01-21T01:58:35.844Z,83.62
2023-01-21T01:59:30.909Z,83.59
2023-01-21T02:00:26.125Z,83.64
2023-01-21T02:01:21.445Z,83.58
2023-01-21T02:02:16.556Z,83.46
2023-01-21T02:03:11.745Z,83.39
2023-01-21T02:04:06.992Z,83.23
2023-01-21T02:05:02.367Z,82.95
2023-01-21T02:05:57.442Z,82.62
2023-01-21T02:06:52.644Z,82.32
2023-01-21T02:07:47.883Z,82.15
2023-01-21T02:08:43.080Z,82.08
2023-01-21T02:09:38.424Z,82.04
2023-01-21T02:10:33.685Z,81.84
2023-01-21T02:11:28.758Z,81.78
2023-01-21T02:12:23.962Z,81.92
2023-01-21T02:13:19.231Z,81.81
2023-01-21T02:14:14.409Z,81.80
2023-01-21T02:15:09.660Z,81.77
2023-01-21T02:16:05.249Z,81.95
2023-01-21T02:17:00.126Z,82.02
2023-01-21T02:17:55.343Z,81.95
2023-01-21T02:18:50.657Z,81.95
2023-01-21T02:19:45.986Z,81.96
2023-01-21T02:20:41.106Z,82.01
2023-01-21T02:21:36.274Z,82.10
2023-01-21T02:22:31.534Z,82.26
2023-01-21T02:23:26.702Z,82.43
2023-01-21T02:24:22.040Z,82.70
2023-01-21T02:25:17.353Z,82.93
2023-01-21T02:26:12.591Z,83.09
2023-01-21T02:27:07.772Z,83.06
2023-01-21T02:28:03.033Z,82.92
2023-01-21T02:28:58.226Z,82.83
2023-01-21T02:29:53.734Z,82.80
2023-01-21T02:30:48.884Z,82.67
2023-01-21T02:31:44.182Z,82.45
2023-01-21T02:32:39.282Z,82.22
2023-01-21T02:33:34.631Z,82.08
2023-01-21T02:34:29.708Z,82.11
2023-01-21T02:35:24.923Z,82.20
2023-01-21T02:36:20.116Z,82.30
2023-01-21T02:37:15.448Z,82.45
2023-01-21T02:38:10.667Z,82.69
2023-01-21T02:39:05.910Z,82.78
2023-01-21T02:40:01.233Z,82.73
2023-01-21T02:40:56.338Z,82.63
2023-01-21T02:41:51.543Z,82.61
2023-01-21T02:42:46.773Z,82.35
2023-01-21T02:43:41.963Z,82.06
2023-01-21T02:44:37.197Z,81.81
2023-01-21T02:45:32.410Z,81.49
2023-01-21T02:46:27.813Z,81.23
2023-01-21T02:47:23.034Z,81.09
2023-01-21T02:48:18.284Z,81.04
2023-01-21T02:49:13.487Z,81.17
2023-01-21T02:50:08.842Z,80.99
2023-01-21T02:51:03.968Z,80.58
2023-01-21T02:51:59.197Z,80.19
2023-01-21T02:52:54.394Z,80.04
2023-01-21T02:53:49.612Z,79.83
2023-01-21T02:54:44.804Z,79.79
2023-01-21T02:55:41.989Z,79.79
2023-01-21T02:56:35.346Z,79.98
2023-01-21T02:57:30.695Z,80.29
2023-01-21T02:58:25.781Z,80.45
2023-01-21T02:59:20.994Z,80.61
2023-01-21T03:00:16.514Z,80.90
2023-01-21T03:01:11.868Z,81.08
2023-01-21T03:02:07.069Z,81.14
2023-01-21T03:03:02.043Z,81.11
2023-01-21T03:03:57.174Z,81.08
2023-01-21T03:04:52.732Z,81.14
2023-01-21T03:05:47.775Z,81.21
2023-01-21T03:06:43.005Z,81.43
2023-01-21T03:07:38.734Z,81.69
2023-01-21T03:08:33.466Z,81.99
2023-01-21T03:09:28.824Z,82.18
2023-01-21T03:10:23.948Z,82.06
2023-01-21T03:11:19.368Z,82.08
2023-01-21T03:12:14.405Z,82.17
2023-01-21T03:13:09.728Z,82.21
2023-01-21T03:14:04.953Z,81.93
2023-01-21T03:14:59.999Z,81.45
2023-01-21T03:15:55.421Z,81.06
2023-01-21T03:16:50.475Z,80.76
2023-01-21T03:17:46.037Z,80.28
2023-01-21T03:18:40.971Z,80.05
2023-01-21T03:19:36.263Z,79.94
2023-01-21T03:20:31.479Z,79.90
2023-01-21T03:21:26.828Z,79.87
2023-01-21T03:22:22.007Z,79.99
2023-01-21T03:23:17.199Z,80.19
2023-01-21T03:24:12.483Z,80.40
2023-01-21T03:25:07.619Z,80.43
2023-01-21T03:26:02.798Z,80.61
2023-01-21T03:26:57.969Z,80.68
2023-01-21T03:27:53.276Z,80.74
2023-01-21T03:28:48.506Z,80.80
2023-01-21T03:29:43.818Z,80.61
2023-01-21T03:30:38.922Z,80.38
2023-01-21T03:31:34.164Z,80.15
2023-01-21T03:32:29.383Z,80.14
2023-01-21T03:33:24.623Z,80.10
2023-01-21T03:34:19.845Z,79.97
2023-01-21T03:35:15.051Z,80.07
2023-01-21T03:36:10.286Z,80.17
2023-01-21T03:37:05.501Z,80.37
2023-01-21T03:38:00.901Z,80.57
2023-01-21T03:38:55.975Z,80.55
2023-01-21T03:39:51.151Z,80.47
2023-01-21T03:40:46.290Z,80.35
2023-01-21T03:41:41.595Z,80.30
2023-01-21T03:42:36.778Z,80.30
2023-01-21T03:43:32.096Z,80.42
2023-01-21T03:44:27.236Z,80.58
2023-01-21T03:45:22.565Z,80.58
2023-01-21T03:46:17.731Z,80.75
2023-01-21T03:47:13.116Z,80.85
2023-01-21T03:48:08.399Z,80.86
2023-01-21T03:49:03.430Z,80.65
2023-01-21T03:49:58.563Z,80.67
2023-01-21T03:50:53.756Z,80.68
2023-01-21T03:51:48.883Z,80.72
2023-01-21T03:52:44.185Z,80.62
2023-01-21T03:53:39.325Z,80.50
2023-01-21T03:54:34.632Z,80.55
2023-01-21T03:55:29.758Z,80.72
2023-01-21T03:56:24.960Z,80.65
2023-01-21T03:57:20.123Z,80.51
2023-01-21T03:58:15.677Z,80.51
2023-01-21T03:59:10.642Z,80.54
2023-01-21T04:00:05.824Z,80.60
2023-01-21T04:01:01.098Z,80.59
2023-01-21T04:01:56.305Z,80.54
2023-01-21T04:02:51.449Z,80.49
2023-01-21T04:03:46.800Z,80.46
2023-01-21T04:04:42.931Z,80.46
2023-01-21T04:05:38.291Z,80.41
2023-01-21T04:06:33.535Z,80.38
2023-01-21T04:07:28.744Z,80.54
2023-01-21T04:08:24.015Z,80.59
2023-01-21T04:09:19.164Z,80.70
2023-01-21T04:10:14.445Z,80.58
2023-01-21T04:11:09.360Z,80.59
2023-01-21T04:12:07.827Z,80.70
2023-01-21T04:13:03.047Z,80.76
2023-01-21T04:13:58.364Z,80.86
2023-01-21T04:14:53.463Z,80.86
2023-01-21T04:15:48.650Z,80.85
2023-01-21T04:16:44.522Z,80.62
2023-01-21T04:17:39.722Z,80.61
2023-01-21T04:18:35.110Z,80.61
2023-01-21T04:19:30.779Z,80.77
2023-01-21T04:20:26.160Z,81.04
2023-01-21T04:21:21.948Z,81.25
2023-01-21T04:22:17.127Z,81.31
2023-01-21T04:23:12.478Z,81.35
2023-01-21T04:24:08.114Z,81.38
2023-01-21T04:25:03.451Z,81.28
2023-01-21T04:25:58.559Z,81.22
2023-01-21T04:26:54.992Z,81.23
2023-01-21T04:27:50.247Z,81.34
2023-01-21T04:28:46.032Z,81.63
2023-01-21T04:29:41.232Z,81.76
2023-01-21T04:30:36.472Z,81.74
2023-01-21T04:31:32.284Z,81.78
2023-01-21T04:32:27.593Z,81.91
2023-01-21T04:33:23.352Z,82.14
2023-01-21T04:34:18.477Z,82.48
2023-01-21T04:35:13.875Z,82.51
2023-01-21T04:36:09.522Z,82.41
2023-01-21T04:37:04.773Z,82.28
2023-01-21T04:37:59.972Z,82.10
2023-01-21T04:38:56.461Z,81.95
2023-01-21T04:39:51.688Z,81.74
2023-01-21T04:40:47.492Z,81.60
2023-01-21T04:41:42.796Z,81.58
2023-01-21T04:42:38.028Z,81.53
2023-01-21T04:43:33.798Z,81.49
2023-01-21T04:44:29.027Z,81.43
2023-01-21T04:45:24.931Z,81.41
2023-01-21T04:46:20.021Z,81.34
2023-01-21T04:47:15.335Z,81.32
2023-01-21T04:48:11.023Z,81.34
2023-01-21T04:49:06.194Z,81.38
2023-01-21T04:50:01.510Z,81.69
2023-01-21T04:50:57.836Z,81.82
2023-01-21T04:51:53.044Z,81.79
2023-01-21T04:52:48.889Z,81.76
2023-01-21T04:53:44.062Z,81.77
2023-01-21T04:54:39.584Z,81.73
2023-01-21T04:55:35.237Z,81.63
2023-01-21T04:56:30.509Z,81.57
2023-01-21T04:57:26.284Z,81.64
2023-01-21T04:58:21.721Z,81.64
2023-01-21T04:59:17.089Z,81.30
2023-01-21T05:00:12.750Z,80.99
2023-01-21T05:01:08.028Z,80.89
2023-01-21T05:02:03.277Z,80.77
2023-01-21T05:02:59.705Z,80.52
2023-01-21T05:03:55.006Z,80.36
2023-01-21T05:04:50.766Z,80.37
2023-01-21T05:05:45.986Z,80.47
2023-01-21T05:06:41.265Z,80.57
2023-01-21T05:07:37.094Z,80.43
2023-01-21T05:08:32.321Z,80.38
2023-01-21T05:09:28.127Z,80.43
2023-01-21T05:10:23.343Z,80.50
2023-01-21T05:11:18.873Z,80.50
2023-01-21T05:12:14.541Z,80.54
2023-01-21T05:13:09.802Z,80.79
2023-01-21T05:14:04.937Z,81.06
2023-01-21T05:15:01.580Z,81.33
2023-01-21T05:15:56.715Z,81.35
2023-01-21T05:16:52.003Z,81.40
2023-01-21T05:17:47.164Z,81.35
2023-01-21T05:18:44.557Z,81.35
2023-01-21T05:19:38.249Z,81.39
2023-01-21T05:20:34.047Z,81.45
2023-01-21T05:21:29.239Z,81.31
2023-01-21T05:22:24.678Z,81.07
2023-01-21T05:23:20.434Z,80.73
2023-01-21T05:24:15.691Z,80.55
2023-01-21T05:25:10.823Z,80.50
2023-01-21T05:26:07.306Z,80.61
2023-01-21T05:27:02.555Z,80.66
2023-01-21T05:27:58.354Z,80.61
2023-01-21T05:28:53.545Z,80.69
2023-01-21T05:29:48.770Z,80.77
2023-01-21T05:30:44.795Z,80.84
2023-01-21T05:31:39.814Z,80.89
2023-01-21T05:32:35.598Z,80.88
2023-01-21T05:33:31.017Z,80.87
2023-01-21T05:34:25.942Z,80.82
2023-01-21T05:35:21.202Z,80.76
2023-01-21T05:36:16.384Z,80.94
2023-01-21T05:37:11.608Z,80.79
2023-01-21T05:38:06.819Z,80.67
2023-01-21T05:39:02.745Z,80.61
2023-01-21T05:39:57.900Z,80.55
2023-01-21T05:40:52.980Z,80.25
2023-01-21T05:41:48.861Z,79.74
2023-01-21T05:42:44.122Z,79.56
2023-01-21T05:43:39.240Z,79.42
2023-01-21T05:44:34.753Z,79.35
2023-01-21T05:45:29.514Z,79.34
2023-01-21T05:46:24.588Z,79.45
2023-01-21T05:47:19.520Z,79.63
2023-01-21T05:48:14.609Z,79.87
2023-01-21T05:49:09.679Z,80.28
2023-01-21T05:50:04.923Z,80.53
2023-01-21T05:51:00.072Z,80.69
2023-01-21T05:51:55.296Z,80.96
2023-01-21T05:52:50.363Z,81.22
2023-01-21T05:53:45.415Z,81.29
2023-01-21T05:54:52.503Z,81.39
2023-01-21T05:55:36.527Z,81.47
2023-01-21T05:56:30.574Z,81.41
2023-01-21T05:57:25.695Z,81.42
2023-01-21T05:58:20.720Z,81.47
2023-01-21T05:59:15.731Z,81.34
2023-01-21T06:00:10.970Z,81.26
2023-01-21T06:01:05.848Z,81.25
2023-01-21T06:02:01.141Z,81.27
2023-01-21T06:02:56.202Z,81.26
2023-01-21T06:03:51.474Z,81.23
2023-01-21T06:04:46.493Z,81.26
2023-01-21T06:05:41.500Z,81.34
2023-01-21T06:06:36.695Z,81.49
2023-01-21T06:07:31.601Z,81.61
2023-01-21T06:08:26.701Z,81.97
2023-01-21T06:09:21.712Z,81.98
2023-01-21T06:10:17.092Z,81.73
2023-01-21T06:11:11.835Z,81.45
2023-01-21T06:12:07.090Z,81.26
2023-01-21T06:13:02.000Z,81.21
2023-01-21T06:13:57.092Z,81.06
2023-01-21T06:14:52.140Z,80.93
2023-01-21T06:15:47.655Z,80.95
2023-01-21T06:16:42.860Z,81.04
2023-01-21T06:17:38.205Z,80.89
2023-01-21T06:18:33.294Z,80.84
2023-01-21T06:19:28.632Z,80.92
2023-01-21T06:20:23.835Z,80.90
2023-01-21T06:21:19.150Z,80.83
2023-01-21T06:22:16.344Z,80.65
2023-01-21T06:23:11.572Z,80.54
2023-01-21T06:24:06.741Z,80.55
2023-01-21T06:25:02.170Z,80.74
2023-01-21T06:25:57.350Z,80.88
2023-01-21T06:26:52.609Z,81.08
2023-01-21T06:27:47.645Z,81.15
2023-01-21T06:28:42.684Z,81.41
2023-01-21T06:29:37.719Z,81.44
2023-01-21T06:30:32.768Z,81.52
2023-01-21T06:31:27.955Z,81.56
2023-01-21T06:32:22.925Z,81.49
2023-01-21T06:33:18.008Z,81.50
2023-01-21T06:34:13.343Z,81.41
2023-01-21T06:35:08.380Z,81.40
2023-01-21T06:36:03.427Z,81.43
2023-01-21T06:36:58.829Z,81.53
2023-01-21T06:37:53.640Z,81.70
2023-01-21T06:38:48.661Z,81.85
2023-01-21T06:39:43.883Z,81.98
2023-01-21T06:40:38.881Z,82.03
2023-01-21T06:41:33.910Z,82.04
2023-01-21T06:42:28.914Z,82.13
2023-01-21T06:43:24.028Z,82.13
2023-01-21T06:44:19.178Z,82.05
2023-01-21T06:45:14.057Z,81.81
2023-01-21T06:46:09.174Z,81.68
2023-01-21T06:47:04.233Z,81.53
2023-01-21T06:47:59.237Z,81.39
2023-01-21T06:48:54.369Z,81.22
2023-01-21T06:49:49.545Z,81.09
2023-01-21T06:50:44.551Z,81.18
2023-01-21T06:51:39.523Z,81.35
2023-01-21T06:52:34.551Z,81.21
2023-01-21T06:53:29.584Z,80.95
2023-01-21T06:54:24.586Z,80.93
2023-01-21T06:55:20.969Z,80.96
2023-01-21T06:56:16.145Z,80.93
2023-01-21T06:57:11.600Z,80.96
2023-01-21T06:58:06.942Z,80.98
2023-01-21T06:59:02.352Z,80.96
2023-01-21T06:59:57.428Z,81.01
2023-01-21T07:00:52.540Z,81.23
2023-01-21T07:01:47.622Z,81.30
2023-01-21T07:02:42.710Z,81.27
2023-01-21T07:03:37.762Z,81.27
2023-01-21T07:04:32.891Z,81.29
2023-01-21T07:05:28.380Z,81.27
2023-01-21T07:06:24.301Z,81.38
2023-01-21T07:07:19.397Z,81.52
2023-01-21T07:08:14.610Z,81.41
2023-01-21T07:09:09.659Z,81.16
2023-01-21T07:10:04.633Z,80.98
2023-01-21T07:10:59.685Z,80.99
2023-01-21T07:11:54.678Z,81.09
2023-01-21T07:12:49.787Z,81.20
2023-01-21T07:13:44.795Z,81.11
2023-01-21T07:14:40.063Z,81.06
2023-01-21T07:15:35.084Z,81.22
2023-01-21T07:16:30.116Z,81.37
2023-01-21T07:17:25.103Z,81.41
2023-01-21T07:18:20.219Z,81.41
2023-01-21T07:19:15.479Z,81.46
2023-01-21T07:20:10.983Z,81.38
2023-01-21T07:21:06.388Z,81.25
2023-01-21T07:22:04.229Z,81.19
2023-01-21T07:22:59.461Z,81.18
2023-01-21T07:23:54.836Z,81.19
2023-01-21T07:24:50.530Z,81.08
2023-01-21T07:25:45.781Z,81.00
2023-01-21T07:26:41.150Z,80.98
2023-01-21T07:27:36.432Z,81.00
2023-01-21T07:28:31.824Z,80.97
2023-01-21T07:29:27.800Z,80.96
2023-01-21T07:30:23.168Z,80.92
2023-01-21T07:31:18.655Z,80.84
2023-01-21T07:32:14.051Z,80.89
2023-01-21T07:33:09.470Z,80.99
2023-01-21T07:34:04.734Z,81.03
2023-01-21T07:35:00.169Z,81.10
2023-01-21T07:35:55.599Z,81.14
2023-01-21T07:36:50.988Z,81.25
2023-01-21T07:37:46.380Z,81.46
2023-01-21T07:38:41.807Z,81.83
2023-01-21T07:39:37.170Z,82.09
2023-01-21T07:40:32.596Z,82.18
2023-01-21T07:41:27.987Z,82.25
2023-01-21T07:42:27.478Z,82.21
2023-01-21T07:43:22.893Z,82.28
2023-01-21T07:44:18.475Z,82.33
2023-01-21T07:45:13.800Z,82.43
2023-01-21T07:46:09.373Z,82.53
2023-01-21T07:47:04.921Z,82.64
2023-01-21T07:48:00.265Z,82.87
2023-01-21T07:48:55.735Z,82.94
2023-01-21T07:49:51.242Z,82.97
2023-01-21T07:50:46.850Z,83.17
2023-01-21T07:51:42.424Z,83.49
2023-01-21T07:52:37.784Z,83.83
2023-01-21T07:53:33.216Z,84.14
2023-01-21T07:54:28.823Z,84.39
2023-01-21T07:55:24.331Z,84.51
2023-01-21T07:56:19.441Z,84.69
2023-01-21T07:57:14.451Z,84.73
2023-01-21T07:58:09.523Z,84.92
2023-01-21T07:59:04.682Z,85.01
2023-01-21T07:59:59.571Z,85.07
2023-01-21T08:00:54.620Z,85.04
2023-01-21T08:01:49.771Z,84.96
2023-01-21T08:02:44.886Z,85.24
2023-01-21T08:03:39.859Z,85.45
2023-01-21T08:04:34.976Z,85.48
2023-01-21T08:05:31.152Z,85.47
2023-01-21T08:06:26.251Z,85.40
2023-01-21T08:07:21.357Z,85.29
2023-01-21T08:08:16.439Z,85.22
2023-01-21T08:09:12.429Z,85.17
2023-01-21T08:10:07.769Z,85.01
2023-01-21T08:11:03.252Z,84.83
2023-01-21T08:11:58.685Z,84.59
2023-01-21T08:12:54.403Z,84.54
2023-01-21T08:13:49.771Z,84.58
2023-01-21T08:14:45.255Z,84.67
2023-01-21T08:15:40.854Z,84.91
2023-01-21T08:16:36.265Z,85.07
2023-01-21T08:17:31.737Z,85.21
2023-01-21T08:18:27.125Z,85.25
2023-01-21T08:19:22.637Z,85.27
2023-01-21T08:20:18.128Z,85.30
2023-01-21T08:21:13.637Z,85.40
2023-01-21T08:22:08.643Z,85.52
2023-01-21T08:23:03.706Z,85.55
2023-01-21T08:23:58.797Z,85.57
2023-01-21T08:24:54.056Z,85.51
2023-01-21T08:25:48.878Z,85.45
2023-01-21T08:26:43.999Z,85.40
2023-01-21T08:27:38.932Z,85.32
2023-01-21T08:28:36.516Z,85.24
2023-01-21T08:29:31.655Z,85.20
2023-01-21T08:30:26.622Z,85.10
2023-01-21T08:31:21.605Z,85.04
2023-01-21T08:32:16.820Z,85.00
2023-01-21T08:33:11.795Z,84.90
2023-01-21T08:34:07.100Z,84.75
2023-01-21T08:35:02.637Z,84.46
2023-01-21T08:35:58.340Z,84.23
2023-01-21T08:36:53.698Z,84.12
2023-01-21T08:37:49.531Z,84.08
2023-01-21T08:38:46.165Z,84.00
2023-01-21T08:39:40.168Z,83.99
2023-01-21T08:40:35.667Z,84.03
2023-01-21T08:41:31.298Z,84.04
2023-01-21T08:42:26.712Z,83.95
2023-01-21T08:43:22.260Z,83.94
2023-01-21T08:44:17.910Z,83.95
2023-01-21T08:45:15.313Z,83.86
2023-01-21T08:46:08.754Z,83.79
2023-01-21T08:47:04.677Z,83.67
2023-01-21T08:47:59.945Z,83.60
2023-01-21T08:48:55.443Z,83.59
2023-01-21T08:49:51.083Z,83.45
2023-01-21T08:50:46.459Z,83.32
2023-01-21T08:51:42.087Z,83.16
2023-01-21T08:52:37.454Z,83.18
2023-01-21T08:53:32.972Z,83.27
2023-01-21T08:54:28.089Z,83.46
2023-01-21T08:55:23.095Z,83.47
2023-01-21T08:56:18.190Z,83.33
2023-01-21T08:57:13.318Z,83.17
2023-01-21T08:58:08.284Z,83.13
2023-01-21T08:59:03.553Z,83.07
2023-01-21T08:59:58.376Z,83.04
2023-01-21T09:00:53.503Z,82.81
2023-01-21T09:01:48.674Z,82.75
2023-01-21T09:02:43.667Z,82.84
2023-01-21T09:03:38.770Z,82.88
2023-01-21T09:04:33.833Z,82.79
2023-01-21T09:05:28.773Z,82.80
2023-01-21T09:06:23.886Z,82.79
2023-01-21T09:07:19.105Z,82.84
2023-01-21T09:08:14.073Z,82.86
2023-01-21T09:09:09.275Z,82.75
2023-01-21T09:10:04.261Z,82.56
2023-01-21T09:10:59.338Z,82.64
2023-01-21T09:11:54.702Z,82.62
2023-01-21T09:12:50.096Z,82.61
2023-01-21T09:13:45.601Z,82.66
2023-01-21T09:14:41.178Z,82.67
2023-01-21T09:15:36.704Z,82.66
2023-01-21T09:16:32.276Z,82.54
2023-01-21T09:17:27.679Z,82.38
2023-01-21T09:18:23.194Z,82.40
2023-01-21T09:19:18.554Z,82.36
2023-01-21T09:20:13.963Z,82.19
2023-01-21T09:21:09.445Z,82.17
2023-01-21T09:22:04.938Z,82.06
2023-01-21T09:23:00.451Z,81.98
2023-01-21T09:23:56.102Z,81.93
2023-01-21T09:24:51.620Z,81.94
2023-01-21T09:25:47.169Z,81.93
2023-01-21T09:26:42.901Z,81.86
2023-01-21T09:27:38.129Z,81.99
2023-01-21T09:28:33.661Z,81.86
2023-01-21T09:29:29.272Z,81.70
2023-01-21T09:30:24.638Z,81.65
2023-01-21T09:31:20.176Z,81.73
2023-01-21T09:32:17.733Z,81.75
2023-01-21T09:33:13.213Z,81.78
2023-01-21T09:34:08.988Z,81.73
2023-01-21T09:35:04.356Z,81.61
2023-01-21T09:35:59.884Z,81.50
2023-01-21T09:36:54.948Z,81.52
2023-01-21T09:37:50.093Z,81.53
2023-01-21T09:38:45.160Z,81.64
2023-01-21T09:39:40.466Z,81.73
2023-01-21T09:40:35.288Z,81.77
2023-01-21T09:41:30.408Z,81.90
2023-01-21T09:42:25.402Z,81.89
2023-01-21T09:43:20.481Z,81.87
2023-01-21T09:44:15.684Z,81.81
2023-01-21T09:45:10.820Z,81.78
2023-01-21T09:46:05.797Z,81.84
2023-01-21T09:47:00.938Z,82.06
2023-01-21T09:47:56.167Z,82.18
2023-01-21T09:48:51.686Z,82.31
2023-01-21T09:49:47.071Z,82.31
2023-01-21T09:50:42.713Z,82.16
2023-01-21T09:51:38.194Z,82.08
2023-01-21T09:52:33.736Z,82.04
2023-01-21T09:53:29.218Z,81.89
2023-01-21T09:54:24.736Z,81.68
2023-01-21T09:55:20.285Z,81.53
2023-01-21T09:56:15.830Z,81.44
2023-01-21T09:57:11.309Z,81.34
2023-01-21T09:58:06.845Z,81.18
2023-01-21T09:59:02.480Z,81.25
2023-01-21T09:59:57.593Z,81.31
2023-01-21T10:00:52.527Z,81.35
2023-01-21T10:01:47.522Z,81.34
2023-01-21T10:02:42.617Z,81.41
2023-01-21T10:03:37.717Z,81.57
2023-01-21T10:04:32.861Z,81.58
2023-01-21T10:05:27.950Z,81.44
2023-01-21T10:06:23.049Z,81.34
2023-01-21T10:07:18.118Z,81.27
2023-01-21T10:08:13.239Z,81.13
2023-01-21T10:09:08.373Z,80.84
2023-01-21T10:10:04.556Z,81.04
2023-01-21T10:11:00.216Z,81.34
2023-01-21T10:11:55.573Z,81.50
2023-01-21T10:12:51.069Z,81.66
2023-01-21T10:13:46.585Z,81.82
2023-01-21T10:14:42.112Z,81.75
2023-01-21T10:15:37.752Z,81.80
2023-01-21T10:16:33.360Z,81.90
2023-01-21T10:17:28.805Z,81.99
2023-01-21T10:18:24.458Z,81.93
2023-01-21T10:19:19.986Z,81.79
2023-01-21T10:20:15.392Z,81.53
2023-01-21T10:21:11.202Z,81.35
2023-01-21T10:22:06.625Z,81.23
2023-01-21T10:23:01.588Z,81.14
2023-01-21T10:23:56.771Z,81.07
2023-01-21T10:24:51.712Z,81.07
2023-01-21T10:25:47.008Z,81.00
2023-01-21T10:26:41.878Z,80.94
2023-01-21T10:27:36.975Z,80.78
2023-01-21T10:28:31.920Z,80.75
2023-01-21T10:29:28.995Z,80.83
2023-01-21T10:30:24.060Z,80.69
2023-01-21T10:31:19.548Z,80.60
2023-01-21T10:32:14.436Z,80.52
2023-01-21T10:33:10.363Z,80.58
2023-01-21T10:34:06.104Z,80.39
2023-01-21T10:35:01.906Z,80.17
2023-01-21T10:35:56.991Z,80.12
2023-01-21T10:36:52.767Z,79.87
2023-01-21T10:37:48.142Z,79.69
2023-01-21T10:38:43.654Z,79.60
2023-01-21T10:39:39.554Z,79.48
2023-01-21T10:40:34.911Z,79.32
2023-01-21T10:41:30.278Z,79.23
2023-01-21T10:42:26.103Z,79.23
2023-01-21T10:43:21.099Z,79.26
2023-01-21T10:44:16.261Z,79.21
2023-01-21T10:45:11.239Z,79.19
2023-01-21T10:46:06.363Z,79.13
2023-01-21T10:47:01.320Z,79.04
2023-01-21T10:47:56.460Z,78.99
2023-01-21T10:48:51.313Z,78.90
2023-01-21T10:49:46.430Z,78.79
2023-01-21T10:50:41.500Z,78.71
2023-01-21T10:51:36.476Z,78.74
2023-01-21T10:52:31.454Z,78.47
2023-01-21T10:53:26.548Z,78.41
2023-01-21T10:54:22.652Z,78.41
2023-01-21T10:55:17.268Z,78.46
2023-01-21T10:56:12.542Z,78.48
2023-01-21T10:57:07.931Z,78.39
2023-01-21T10:58:03.571Z,78.25
2023-01-21T10:58:59.127Z,78.17
2023-01-21T10:59:54.470Z,78.02
2023-01-21T11:00:50.163Z,78.02
2023-01-21T11:01:45.283Z,78.10
2023-01-21T11:02:40.447Z,78.11
2023-01-21T11:03:35.447Z,77.96
2023-01-21T11:04:30.581Z,77.89
2023-01-21T11:05:25.780Z,77.85
2023-01-21T11:06:20.901Z,77.91
2023-01-21T11:07:16.118Z,77.78
2023-01-21T11:08:12.699Z,77.58
2023-01-21T11:09:07.829Z,77.64
2023-01-21T11:10:02.825Z,77.75
2023-01-21T11:10:57.937Z,77.82
2023-01-21T11:11:53.025Z,77.79
2023-01-21T11:12:48.024Z,77.76
2023-01-21T11:13:43.004Z,77.75
2023-01-21T11:14:38.095Z,77.71
2023-01-21T11:15:33.646Z,77.73
2023-01-21T11:16:29.143Z,77.67
2023-01-21T11:17:24.691Z,77.60
2023-01-21T11:18:20.035Z,77.71
2023-01-21T11:19:15.541Z,77.58
2023-01-21T11:20:11.139Z,77.55
2023-01-21T11:21:06.549Z,77.73
2023-01-21T11:22:02.002Z,78.06
2023-01-21T11:22:57.546Z,78.17
2023-01-21T11:23:52.914Z,78.17
2023-01-21T11:24:48.416Z,78.46
2023-01-21T11:25:43.931Z,78.75
2023-01-21T11:26:39.475Z,78.90
2023-01-21T11:27:35.083Z,79.14
2023-01-21T11:28:30.604Z,79.43
2023-01-21T11:29:26.086Z,79.58
2023-01-21T11:30:44.111Z,79.51
2023-01-21T11:31:18.885Z,79.82
2023-01-21T11:32:13.434Z,80.09
2023-01-21T11:33:08.668Z,80.17
2023-01-21T11:34:04.268Z,80.17
2023-01-21T11:34:59.742Z,80.11
2023-01-21T11:35:55.212Z,80.03
2023-01-21T11:36:50.186Z,80.03
2023-01-21T11:37:45.310Z,80.10
2023-01-21T11:38:40.281Z,80.23
2023-01-21T11:39:35.384Z,80.43
2023-01-21T11:40:30.463Z,80.44
2023-01-21T11:41:25.602Z,80.29
2023-01-21T11:42:20.804Z,80.28
2023-01-21T11:43:15.840Z,80.49
2023-01-21T11:44:14.576Z,80.59
2023-01-21T11:45:09.675Z,80.47
2023-01-21T11:46:04.710Z,80.33
2023-01-21T11:46:59.852Z,79.98
2023-01-21T11:47:54.808Z,79.99
2023-01-21T11:48:49.928Z,80.07
2023-01-21T11:49:44.899Z,80.26
2023-01-21T11:50:40.034Z,80.38
2023-01-21T11:51:35.120Z,80.52
2023-01-21T11:52:30.226Z,80.29
2023-01-21T11:53:25.305Z,80.54